Time;durP1;ratioP1;P1;durP2;ratioP2;P2;SDS_P1;SDS_P2;PMS_P1;PMS_P2;Temp;Humidity;BMP_temperature;BMP_pressure;BME280_temperature;BME280_humidity;BME280_pressure;Samples;Min_cycle;Max_cycle;Signal;HPM_P1;HPM_P2
2022/01/11 00:00:53;;;;;;;11.22;5.42;;;;;;;-6.13;100.00;100136.59;1801607;78;21491;-66
2022/01/11 00:03:20;;;;;;;14.20;6.47;;;;;;;-6.09;100.00;100141.89;1797724;78;21023;-65
2022/01/11 00:08:33;;;;;;;10.90;6.03;;;;;;;-6.03;100.00;100145.60;1801395;78;21012;-65
2022/01/11 00:11:05;;;;;;;15.32;5.60;;;;;;;-6.06;100.00;100149.55;1794331;78;21549;-65
2022/01/11 00:13:33;;;;;;;12.73;5.97;;;;;;;-6.08;100.00;100150.75;1785561;78;21030;-64
2022/01/11 00:16:00;;;;;;;11.12;5.42;;;;;;;-6.09;100.00;100151.79;1795213;78;21010;-65
2022/01/11 00:18:28;;;;;;;13.72;6.12;;;;;;;-6.07;100.00;100156.46;1785386;78;21147;-65
2022/01/11 00:20:55;;;;;;;11.00;5.83;;;;;;;-6.07;100.00;100155.92;1792779;78;21037;-66
2022/01/11 00:25:55;;;;;;;15.32;6.87;;;;;;;-6.06;100.00;100154.92;1787868;78;21982;-65
2022/01/11 00:28:22;;;;;;;18.37;7.37;;;;;;;-6.00;100.00;100165.34;1800922;78;20976;-64
2022/01/11 00:30:51;;;;;;;18.12;6.22;;;;;;;-5.99;100.00;100167.83;1785064;78;21782;-64
2022/01/11 00:33:25;;;;;;;11.80;5.83;;;;;;;-5.96;100.00;100172.50;1801320;78;20993;-64
2022/01/11 00:35:59;;;;;;;12.80;5.97;;;;;;;-5.96;100.00;100167.97;1809010;78;21079;-65
2022/01/11 00:38:31;;;;;;;13.72;6.15;;;;;;;-5.96;100.00;100171.99;1788126;78;21046;-63
2022/01/11 00:41:05;;;;;;;14.83;6.17;;;;;;;-5.96;100.00;100170.66;1742331;80;21008;-65
2022/01/11 00:43:32;;;;;;;13.38;5.85;;;;;;;-5.94;100.00;100176.66;1788756;78;21060;-65
2022/01/11 00:46:00;;;;;;;11.95;5.42;;;;;;;-5.89;100.00;100174.23;1802157;78;21067;-65
2022/01/11 00:48:27;;;;;;;11.38;5.90;;;;;;;-5.84;100.00;100174.98;1802489;78;21126;-66
2022/01/11 00:50:55;;;;;;;12.68;5.45;;;;;;;-5.87;100.00;100173.50;1798607;78;21007;-66
2022/01/11 00:53:23;;;;;;;14.30;5.42;;;;;;;-5.97;100.00;100181.05;1732334;80;21166;-67
2022/01/11 00:55:49;;;;;;;9.83;5.67;;;;;;;-5.94;100.00;100174.48;1731906;80;21128;-65
2022/01/11 00:58:16;;;;;;;11.95;5.08;;;;;;;-5.92;100.00;100175.94;1730006;80;21530;-66
2022/01/11 01:00:44;;;;;;;9.35;4.92;;;;;;;-5.93;100.00;100186.37;1738007;80;21376;-65
2022/01/11 01:03:10;;;;;;;10.70;4.95;;;;;;;-5.93;100.00;100183.68;1737364;80;20992;-66
2022/01/11 01:05:37;;;;;;;10.60;4.72;;;;;;;-5.95;100.00;100187.06;1740350;80;21028;-65
2022/01/11 01:08:05;;;;;;;10.25;4.90;;;;;;;-5.96;100.00;100188.09;1797877;78;21094;-65
2022/01/11 01:10:36;;;;;;;8.45;4.75;;;;;;;-6.02;100.00;100192.38;1805190;78;21050;-66
2022/01/11 01:13:08;;;;;;;9.95;5.12;;;;;;;-6.03;100.00;100194.76;1785532;78;21601;-66
2022/01/11 01:15:35;;;;;;;10.32;4.97;;;;;;;-6.04;100.00;100197.11;1766919;79;21540;-65
2022/01/11 01:18:04;;;;;;;14.07;5.50;;;;;;;-6.04;100.00;100196.30;1791306;78;21015;-66
2022/01/11 01:20:30;;;;;;;12.35;5.55;;;;;;;-6.08;100.00;100198.56;1797858;78;21783;-65
2022/01/11 01:23:00;;;;;;;10.93;4.83;;;;;;;-6.05;100.00;100204.04;1790282;78;21453;-64
2022/01/11 01:25:28;;;;;;;10.32;5.28;;;;;;;-6.09;100.00;100194.73;1801336;78;21072;-65
2022/01/11 01:27:55;;;;;;;10.30;5.45;;;;;;;-6.12;100.00;100203.48;1789981;78;21032;-64
2022/01/11 01:30:21;;;;;;;11.03;5.35;;;;;;;-6.13;100.00;100200.48;1796599;78;21509;-65
2022/01/11 01:32:50;;;;;;;10.98;5.40;;;;;;;-6.14;100.00;100209.55;1746402;81;21158;-65
2022/01/11 01:35:18;;;;;;;12.05;6.10;;;;;;;-6.18;100.00;100209.63;1759428;78;21150;-66
2022/01/11 01:37:46;;;;;;;10.85;5.10;;;;;;;-6.19;100.00;100204.45;1792450;78;20989;-64
2022/01/11 01:40:16;;;;;;;12.82;5.53;;;;;;;-6.16;100.00;100209.44;1795788;78;21556;-65
2022/01/11 01:42:42;;;;;;;14.35;6.55;;;;;;;-6.10;100.00;100215.36;1796441;78;21273;-65
2022/01/11 01:45:11;;;;;;;11.88;5.70;;;;;;;-6.07;100.00;100221.69;1797332;78;21146;-64
2022/01/11 01:47:38;;;;;;;10.88;6.22;;;;;;;-6.05;100.00;100219.64;1786023;78;21123;-66
2022/01/11 01:50:08;;;;;;;11.38;6.15;;;;;;;-6.13;100.00;100215.75;1800594;78;20993;-65
2022/01/11 01:52:34;;;;;;;10.45;5.80;;;;;;;-6.22;100.00;100215.05;1797344;78;21086;-65
2022/01/11 01:55:01;;;;;;;12.75;6.30;;;;;;;-6.22;100.00;100215.05;1791918;78;21059;-66
2022/01/11 01:57:27;;;;;;;12.15;5.83;;;;;;;-6.16;100.00;100212.11;1791636;78;21100;-65
2022/01/11 01:59:55;;;;;;;14.47;5.78;;;;;;;-6.14;100.00;100213.57;1790302;78;21458;-66
2022/01/11 02:02:23;;;;;;;12.73;6.60;;;;;;;-6.07;100.00;100219.53;1742999;80;21080;-63
2022/01/11 02:04:52;;;;;;;13.83;6.53;;;;;;;-6.07;100.00;100214.16;1730523;80;21040;-67
2022/01/11 02:07:25;;;;;;;13.45;6.55;;;;;;;-6.04;100.00;100221.80;1731235;81;21155;-66
2022/01/11 02:09:55;;;;;;;10.82;5.78;;;;;;;-6.11;100.00;100223.91;1733738;81;21167;-65
2022/01/11 02:12:24;;;;;;;14.03;5.97;;;;;;;-6.13;100.00;100222.46;1791712;78;20992;-64
2022/01/11 02:14:51;;;;;;;13.45;6.33;;;;;;;-6.13;100.00;100221.13;1788486;78;21050;-64
2022/01/11 02:17:17;;;;;;;14.83;6.75;;;;;;;-6.14;100.00;100218.94;1790511;78;20980;-65
2022/01/11 02:19:47;;;;;;;12.13;6.28;;;;;;;-6.14;100.00;100225.65;1794426;78;21003;-64
2022/01/11 02:22:13;;;;;;;15.85;7.15;;;;;;;-6.19;100.00;100222.70;1801927;78;21907;-64
2022/01/11 02:24:40;;;;;;;14.90;7.05;;;;;;;-6.25;100.00;100225.66;1798336;78;21044;-63
2022/01/11 02:27:07;;;;;;;16.15;6.72;;;;;;;-6.26;100.00;100220.49;1802124;78;21018;-64
2022/01/11 02:29:35;;;;;;;14.95;6.40;;;;;;;-6.25;100.00;100225.66;1773105;78;21080;-65
2022/01/11 02:32:02;;;;;;;14.25;6.40;;;;;;;-6.22;100.00;100220.41;1802288;78;21083;-64
2022/01/11 02:34:30;;;;;;;12.50;6.20;;;;;;;-6.26;100.00;100228.55;1787088;78;21183;-65
2022/01/11 02:37:04;;;;;;;13.32;6.08;;;;;;;-6.27;100.00;100229.55;1787314;78;21001;-64
2022/01/11 02:39:37;;;;;;;13.03;6.70;;;;;;;-6.26;100.00;100230.69;1783234;78;21050;-64
2022/01/11 02:42:10;;;;;;;12.13;6.75;;;;;;;-6.26;100.00;100231.22;1785387;78;21028;-64
2022/01/11 02:44:38;;;;;;;13.62;6.50;;;;;;;-6.28;100.00;100227.89;1786169;78;21513;-64
2022/01/11 02:47:05;;;;;;;12.13;5.55;;;;;;;-6.30;100.00;100229.93;1797408;78;21116;-64
2022/01/11 02:49:33;;;;;;;14.40;6.67;;;;;;;-6.33;100.00;100236.52;1787759;78;21644;-63
2022/01/11 02:52:08;;;;;;;15.63;6.92;;;;;;;-6.35;100.00;100232.66;1780992;78;21046;-64
2022/01/11 02:54:35;;;;;;;11.60;6.12;;;;;;;-6.36;100.00;100239.56;1789758;78;21053;-66
2022/01/11 02:57:19;;;;;;;;;;;;;;;-6.35;100.00;100246.08;1812741;78;21100;-64
2022/01/11 02:59:46;;;;;;;9.88;5.75;;;;;;;-6.36;100.00;100233.70;1800721;78;20413;-66
2022/01/11 03:02:16;;;;;;;13.88;6.92;;;;;;;-6.32;100.00;100237.33;1787327;78;21067;-64
2022/01/11 03:04:45;;;;;;;12.98;6.30;;;;;;;-6.26;100.00;100235.25;1790968;78;21006;-63
2022/01/11 03:07:19;;;;;;;13.72;6.22;;;;;;;-6.23;100.00;100241.57;1792832;78;21000;-64
2022/01/11 03:10:02;;;;;;;12.43;5.58;;;;;;;-6.24;100.00;100242.58;1798157;78;21573;-65
2022/01/11 03:12:17;;;;;;;12.73;6.17;;;;;;;-6.20;100.00;100237.66;1802495;78;21564;-66
2022/01/11 03:14:45;;;;;;;14.47;5.70;;;;;;;-6.13;100.00;100245.27;1796401;78;20976;-65
2022/01/11 03:17:11;;;;;;;12.20;6.58;;;;;;;-6.08;100.00;100249.55;1790772;78;21556;-65
2022/01/11 03:19:38;;;;;;;11.08;5.78;;;;;;;-6.09;100.00;100251.09;1793910;78;21026;-65
2022/01/11 03:22:05;;;;;;;14.20;6.55;;;;;;;-6.16;100.00;100254.52;1782382;78;21064;-66
2022/01/11 03:24:32;;;;;;;14.55;6.50;;;;;;;-6.17;100.00;100249.34;1800499;78;21458;-64
2022/01/11 03:27:01;;;;;;;11.88;5.83;;;;;;;-6.15;100.00;100256.20;1790249;78;21489;-65
2022/01/11 03:29:29;;;;;;;12.78;6.15;;;;;;;-6.11;100.00;100253.97;1794113;79;21110;-64
2022/01/11 03:31:55;;;;;;;10.35;6.05;;;;;;;-6.09;100.00;100262.67;1790907;78;21113;-65
2022/01/11 03:34:21;;;;;;;14.95;6.72;;;;;;;-6.07;100.00;100258.45;1801315;78;21090;-63
2022/01/11 03:36:48;;;;;;;13.70;7.10;;;;;;;-6.08;100.00;100259.45;1810536;78;21987;-64
2022/01/11 03:39:14;;;;;;;12.70;6.70;;;;;;;-6.11;100.00;100263.36;1806338;78;21090;-65
2022/01/11 03:41:41;;;;;;;13.88;6.85;;;;;;;-6.10;100.00;100258.30;1797920;78;21056;-64
2022/01/11 03:44:09;;;;;;;11.88;5.72;;;;;;;-6.01;100.00;100258.98;1783917;78;21016;-65
2022/01/11 03:46:35;;;;;;;14.50;7.03;;;;;;;-5.94;100.00;100263.91;1808743;78;21563;-66
2022/01/11 03:49:03;;;;;;;14.23;7.00;;;;;;;-5.96;100.00;100264.61;1790905;78;21179;-65
2022/01/11 03:51:33;;;;;;;18.70;7.72;;;;;;;-6.03;100.00;100268.58;1791942;78;21065;-65
2022/01/11 03:54:08;;;;;;;12.07;6.00;;;;;;;-6.02;100.00;100266.73;1783189;78;21071;-66
2022/01/11 03:56:31;;;;;;;14.53;6.70;;;;;;;-6.04;100.00;100271.45;1784456;78;22127;-63
2022/01/11 03:59:06;;;;;;;16.05;8.28;;;;;;;-6.06;100.00;100278.89;1783332;78;21061;-65
2022/01/11 04:01:35;;;;;;;17.50;8.10;;;;;;;-6.07;100.00;100268.66;1810193;78;21077;-64
2022/01/11 04:04:01;;;;;;;15.38;7.60;;;;;;;-6.04;100.00;100273.60;1792296;78;21047;-66
2022/01/11 04:06:28;;;;;;;13.70;7.33;;;;;;;-6.04;100.00;100275.48;1793766;78;21469;-64
2022/01/11 04:08:54;;;;;;;11.93;6.60;;;;;;;-6.01;100.00;100280.45;1787636;78;21032;-65
2022/01/11 04:11:21;;;;;;;15.03;7.10;;;;;;;-5.99;100.00;100281.10;1799554;78;21031;-64
2022/01/11 04:13:49;;;;;;;14.65;7.05;;;;;;;-5.97;100.00;100282.25;1795511;78;21510;-65
2022/01/11 04:16:17;;;;;;;16.67;6.47;;;;;;;-5.96;100.00;100290.11;1796781;78;21142;-64
2022/01/11 04:18:46;;;;;;;13.08;6.17;;;;;;;-5.95;100.00;100282.36;1791565;78;20967;-65
2022/01/11 04:21:12;;;;;;;13.65;6.15;;;;;;;-5.92;100.00;100287.87;1785424;78;20972;-64
2022/01/11 04:23:40;;;;;;;14.63;6.30;;;;;;;-5.91;100.00;100283.66;1782009;78;21056;-64
2022/01/11 04:26:07;;;;;;;7.70;4.58;;;;;;;-5.86;100.00;100291.97;1734732;81;21866;-64
2022/01/11 04:28:36;;;;;;;11.93;6.30;;;;;;;-5.77;100.00;100298.55;1754782;80;21493;-64
2022/01/11 04:31:05;;;;;;;11.70;6.42;;;;;;;-5.81;100.00;100299.44;1730515;81;21060;-64
2022/01/11 04:33:42;;;;;;;9.50;4.95;;;;;;;-5.81;100.00;100293.23;1739764;81;22212;-65
2022/01/11 04:36:07;;;;;;;7.97;5.12;;;;;;;-5.81;100.00;100303.47;1710140;81;21023;-64
2022/01/11 04:38:35;;;;;;;9.75;5.53;;;;;;;-5.82;100.00;100299.13;1736323;81;23329;-65
2022/01/11 04:41:02;;;;;;;9.38;5.85;;;;;;;-5.78;100.00;100308.95;1789461;78;21508;-64
2022/01/11 04:43:30;;;;;;;10.20;5.75;;;;;;;-5.79;100.00;100305.45;1801091;78;21000;-64
2022/01/11 04:45:58;;;;;;;10.28;5.90;;;;;;;-5.77;100.00;100308.79;1805484;78;21046;-65
2022/01/11 04:48:25;;;;;;;9.50;6.00;;;;;;;-5.76;100.00;100306.91;1801491;78;21519;-65
2022/01/11 04:50:52;;;;;;;16.82;7.95;;;;;;;-5.73;100.00;100326.66;1761855;79;21281;-64
2022/01/11 04:53:18;;;;;;;23.38;10.18;;;;;;;-5.77;100.00;100310.12;1794056;78;21079;-64
2022/01/11 04:55:45;;;;;;;15.38;6.70;;;;;;;-5.78;100.00;100315.66;1791461;78;21594;-66
2022/01/11 04:58:13;;;;;;;13.22;6.70;;;;;;;-5.78;100.00;100315.66;1744560;81;21040;-63
2022/01/11 05:00:40;;;;;;;10.93;6.85;;;;;;;-5.84;100.00;100314.59;1744583;80;21026;-64
2022/01/11 05:03:06;;;;;;;14.58;7.30;;;;;;;-5.88;100.00;100328.91;1729919;79;21556;-64
2022/01/11 05:05:33;;;;;;;13.48;7.00;;;;;;;-5.89;100.00;100327.77;1741591;81;21017;-64
2022/01/11 05:08:02;;;;;;;13.65;7.33;;;;;;;-5.94;100.00;100322.97;1735370;81;21015;-65
2022/01/11 05:10:31;;;;;;;18.95;9.15;;;;;;;-5.93;100.00;100334.52;1724157;80;21040;-66
2022/01/11 05:12:58;;;;;;;15.45;8.20;;;;;;;-5.92;100.00;100336.20;1732584;80;21020;-65
2022/01/11 05:15:28;;;;;;;14.18;6.25;;;;;;;-5.91;100.00;100341.38;1812428;78;21783;-66
2022/01/11 05:17:54;;;;;;;12.68;5.75;;;;;;;-5.96;100.00;100339.77;1798922;78;21144;-65
2022/01/11 05:20:20;;;;;;;7.03;4.35;;;;;;;-6.00;100.00;100345.19;1801448;78;21587;-65
2022/01/11 05:22:48;;;;;;;9.68;5.03;;;;;;;-5.95;100.00;100350.82;1797614;78;21053;-66
2022/01/11 05:25:15;;;;;;;5.60;4.03;;;;;;;-5.93;100.00;100346.60;1786953;78;21126;-66
2022/01/11 05:27:41;;;;;;;10.85;4.92;;;;;;;-5.85;100.00;100350.51;1791671;78;21794;-65
2022/01/11 05:30:11;;;;;;;9.53;4.47;;;;;;;-5.79;100.00;100354.30;1786539;78;21501;-67
2022/01/11 05:32:38;;;;;;;10.78;5.17;;;;;;;-5.77;100.00;100363.84;1796275;78;20999;-65
2022/01/11 05:35:07;;;;;;;6.60;4.00;;;;;;;-5.73;100.00;100358.89;1798402;78;21081;-67
2022/01/11 05:37:33;;;;;;;8.10;4.80;;;;;;;-5.73;100.00;100365.61;1800497;78;21062;-66
2022/01/11 05:40:01;;;;;;;8.85;4.60;;;;;;;-5.70;100.00;100365.75;1796027;78;21079;-66
2022/01/11 05:42:30;;;;;;;8.83;4.45;;;;;;;-5.70;100.00;100373.80;1804318;78;21666;-65
2022/01/11 05:44:59;;;;;;;11.03;5.25;;;;;;;-5.71;100.00;100380.21;1800318;78;21047;-67
2022/01/11 05:47:25;;;;;;;11.48;5.03;;;;;;;-5.71;100.00;100372.97;1808149;78;21070;-66
2022/01/11 05:49:52;;;;;;;9.15;4.80;;;;;;;-5.69;100.00;100377.64;1798476;78;21055;-66
2022/01/11 05:52:19;;;;;;;10.28;5.28;;;;;;;-5.63;100.00;100381.43;1802045;78;21103;-65
2022/01/11 05:54:45;;;;;;;10.00;5.42;;;;;;;-5.61;100.00;100387.41;1784395;78;20981;-65
2022/01/11 05:57:11;;;;;;;10.35;4.83;;;;;;;-5.61;100.00;100379.36;1787385;78;20988;-66
2022/01/11 05:59:38;;;;;;;8.73;4.37;;;;;;;-5.56;100.00;100392.23;1808581;78;21497;-66
2022/01/11 06:02:06;;;;;;;8.10;4.08;;;;;;;-5.54;100.00;100382.11;1791121;78;21039;-66
2022/01/11 06:04:33;;;;;;;8.03;4.58;;;;;;;-5.53;100.00;100391.84;1786052;78;21138;-66
2022/01/11 06:07:02;;;;;;;9.15;4.70;;;;;;;-5.54;100.00;100403.09;1801157;78;21024;-66
2022/01/11 06:09:29;;;;;;;11.75;4.90;;;;;;;-5.56;100.00;100398.95;1809421;78;21113;-65
2022/01/11 06:11:56;;;;;;;8.63;4.80;;;;;;;-5.57;100.00;100406.67;1802503;78;21098;-67
2022/01/11 06:14:23;;;;;;;10.58;5.62;;;;;;;-5.54;100.00;100404.94;1738992;81;21042;-65
2022/01/11 06:16:50;;;;;;;9.58;4.97;;;;;;;-5.49;100.00;100403.86;1794067;78;21221;-66
2022/01/11 06:19:17;;;;;;;14.43;6.50;;;;;;;-5.47;100.00;100413.91;1805487;78;21421;-65
2022/01/11 06:21:45;;;;;;;15.50;5.97;;;;;;;-5.42;100.00;100413.33;1777984;78;21422;-65
2022/01/11 06:24:11;;;;;;;16.07;7.15;;;;;;;-5.37;100.00;100413.08;1791062;78;20988;-66
2022/01/11 06:26:41;;;;;;;14.40;7.67;;;;;;;-5.36;100.00;100419.30;1799711;78;21051;-66
2022/01/11 06:29:08;;;;;;;16.60;8.28;;;;;;;-5.34;100.00;100416.41;1807884;78;21215;-66
2022/01/11 06:31:35;;;;;;;21.87;8.00;;;;;;;-5.40;100.00;100424.72;1806596;78;20988;-65
2022/01/11 06:34:03;;;;;;;12.68;6.70;;;;;;;-5.47;100.00;100417.09;1798884;78;21014;-64
2022/01/11 06:36:32;;;;;;;12.95;6.42;;;;;;;-5.49;100.00;100418.63;1778221;78;21003;-66
2022/01/11 06:39:02;;;;;;;13.58;7.47;;;;;;;-5.53;100.00;100422.23;1798447;78;21023;-66
2022/01/11 06:41:31;;;;;;;17.90;8.78;;;;;;;-5.55;100.00;100428.81;1801547;78;21103;-66
2022/01/11 06:44:00;;;;;;;13.75;8.23;;;;;;;-5.56;100.00;100425.81;1795325;79;21024;-66
2022/01/11 06:46:28;;;;;;;16.80;9.05;;;;;;;-5.57;100.00;100428.16;1809800;78;21007;-66
2022/01/11 06:48:57;;;;;;;18.75;8.25;;;;;;;-5.58;100.00;100435.91;1792001;78;21451;-66
2022/01/11 06:51:24;;;;;;;13.58;6.65;;;;;;;-5.56;100.00;100434.69;1794380;78;21052;-65
2022/01/11 06:53:53;;;;;;;17.32;7.70;;;;;;;-5.56;100.00;100432.53;1809541;78;21156;-67
2022/01/11 06:56:21;;;;;;;20.08;9.05;;;;;;;-5.55;100.00;100439.05;1769839;78;20980;-66
2022/01/11 06:58:50;;;;;;;13.55;6.53;;;;;;;-5.55;100.00;100440.40;1794820;78;21040;-65
2022/01/11 07:01:17;;;;;;;16.60;7.58;;;;;;;-5.52;100.00;100441.86;1780494;78;21028;-65
2022/01/11 07:03:45;;;;;;;14.50;7.05;;;;;;;-5.50;100.00;100446.53;1810316;78;21028;-65
2022/01/11 07:06:16;;;;;;;13.83;6.95;;;;;;;-5.48;100.00;100451.72;1794342;78;21199;-65
2022/01/11 07:08:42;;;;;;;12.35;7.10;;;;;;;-5.48;100.00;100454.40;1795345;78;21084;-65
2022/01/11 07:11:12;;;;;;;17.90;7.08;;;;;;;-5.47;100.00;100456.89;1798692;78;21577;-66
2022/01/11 07:13:39;;;;;;;12.75;6.42;;;;;;;-5.42;100.00;100453.63;1744020;80;20989;-65
2022/01/11 07:16:06;;;;;;;14.35;6.87;;;;;;;-5.37;100.00;100452.05;1789871;78;21015;-66
2022/01/11 07:18:34;;;;;;;12.63;6.60;;;;;;;-5.37;100.00;100453.39;1789083;78;21164;-65
2022/01/11 07:21:02;;;;;;;14.07;6.47;;;;;;;-5.32;100.00;100454.68;1796135;78;21512;-66
2022/01/11 07:23:29;;;;;;;13.90;6.97;;;;;;;-5.29;100.00;100465.85;1801572;78;21074;-66
2022/01/11 07:25:58;;;;;;;9.98;5.83;;;;;;;-5.35;100.00;100453.69;1789986;78;21048;-65
2022/01/11 07:28:26;;;;;;;11.65;5.55;;;;;;;-5.41;100.00;100456.12;1807421;78;21129;-66
2022/01/11 07:30:53;;;;;;;12.10;6.95;;;;;;;-5.39;100.00;100450.05;1795543;78;21156;-65
2022/01/11 07:33:20;;;;;;;13.10;6.72;;;;;;;-5.35;100.00;100457.73;1799262;78;21107;-66
2022/01/11 07:35:49;;;;;;;11.70;5.58;;;;;;;-5.35;100.00;100456.38;1786115;78;21014;-67
2022/01/11 07:38:18;;;;;;;14.30;6.17;;;;;;;-5.36;100.00;100462.29;1795775;78;21059;-65
2022/01/11 07:40:46;;;;;;;8.38;5.17;;;;;;;-5.36;100.00;100459.60;1798165;78;20972;-65
2022/01/11 07:43:14;;;;;;;9.93;4.92;;;;;;;-5.28;100.00;100465.35;1786736;78;21234;-66
2022/01/11 07:45:52;;;;;;;10.78;5.53;;;;;;;-5.23;100.00;100463.42;1794838;78;21080;-66
2022/01/11 07:48:19;;;;;;;8.75;4.47;;;;;;;-5.18;100.00;100465.87;1796251;78;21509;-66
2022/01/11 07:50:47;;;;;;;8.65;4.67;;;;;;;-5.20;100.00;100465.75;1797333;78;21005;-66
2022/01/11 07:53:14;;;;;;;10.48;5.53;;;;;;;-5.25;100.00;100466.30;1793187;78;21032;-66
2022/01/11 07:55:45;;;;;;;9.98;5.22;;;;;;;-5.26;100.00;100468.19;1804712;78;22265;-66
2022/01/11 07:58:13;;;;;;;10.50;6.25;;;;;;;-5.24;100.00;100469.33;1797948;78;21153;-65
2022/01/11 08:00:42;;;;;;;15.05;8.10;;;;;;;-5.22;100.00;100468.61;1802567;78;21504;-66
2022/01/11 08:03:11;;;;;;;18.15;7.92;;;;;;;-5.22;100.00;100467.27;1793071;78;21043;-67
2022/01/11 08:05:40;;;;;;;12.85;6.85;;;;;;;-5.20;100.00;100472.47;1804157;78;21031;-65
2022/01/11 08:08:07;;;;;;;15.95;7.65;;;;;;;-5.16;100.00;100473.23;1801734;78;21089;-65
2022/01/11 08:10:34;;;;;;;10.80;6.22;;;;;;;-5.10;100.00;100478.87;1795558;78;21343;-67
2022/01/11 08:13:07;;;;;;;6.75;4.40;;;;;;;-5.10;100.00;100472.95;1797427;78;21494;-66
2022/01/11 08:15:34;;;;;;;14.58;6.67;;;;;;;-5.18;100.00;100477.13;1793952;78;21006;-65
2022/01/11 08:18:03;;;;;;;12.80;5.28;;;;;;;-5.21;100.00;100476.16;1786493;78;21167;-66
2022/01/11 08:20:29;;;;;;;9.28;5.58;;;;;;;-5.16;100.00;100476.42;1807842;78;21808;-65
2022/01/11 08:22:57;;;;;;;6.53;3.62;;;;;;;-5.10;100.00;100480.21;1811007;78;21110;-66
2022/01/11 08:25:26;;;;;;;6.65;3.60;;;;;;;-5.04;100.00;100472.71;1793013;78;21028;-66
2022/01/11 08:27:52;;;;;;;12.28;5.60;;;;;;;-5.00;100.00;100486.10;1794502;78;21042;-66
2022/01/11 08:30:19;;;;;;;10.45;5.30;;;;;;;-5.06;100.00;100474.75;1789067;78;21015;-67
2022/01/11 08:32:48;;;;;;;8.30;4.70;;;;;;;-5.10;100.00;100481.02;1796131;78;22048;-66
2022/01/11 08:35:15;;;;;;;8.90;4.05;;;;;;;-5.14;100.00;100480.60;1770364;80;20992;-65
2022/01/11 08:37:42;;;;;;;7.70;4.70;;;;;;;-5.18;100.00;100478.47;1748402;80;20993;-66
2022/01/11 08:40:11;;;;;;;9.70;4.90;;;;;;;-5.16;100.00;100475.08;1807552;78;21070;-65
2022/01/11 08:42:40;;;;;;;8.35;5.35;;;;;;;-5.14;100.00;100476.56;1799759;78;21084;-66
2022/01/11 08:45:08;;;;;;;14.00;5.95;;;;;;;-5.06;100.00;100478.78;1802283;78;21090;-66
2022/01/11 08:47:36;;;;;;;11.68;5.33;;;;;;;-4.98;100.00;100481.88;1779986;78;21502;-68
2022/01/11 08:50:05;;;;;;;13.62;5.53;;;;;;;-4.94;100.00;100483.13;1787751;78;21035;-65
2022/01/11 08:52:35;;;;;;;11.43;5.42;;;;;;;-5.02;100.00;100482.77;1792310;78;21067;-65
2022/01/11 08:55:02;;;;;;;11.73;5.90;;;;;;;-4.97;100.00;100483.02;1794108;78;20996;-66
2022/01/11 08:57:32;;;;;;;10.85;6.05;;;;;;;-4.89;100.00;100480.70;1786220;78;21816;-65
2022/01/11 09:00:03;;;;;;;11.50;6.67;;;;;;;-4.83;100.00;100480.45;1800499;78;21168;-66
2022/01/11 09:02:32;;;;;;;12.20;5.97;;;;;;;-4.74;100.00;100485.18;1790727;78;21585;-64
2022/01/11 09:04:58;;;;;;;11.45;5.97;;;;;;;-4.75;100.00;100481.65;1787925;78;21055;-65
2022/01/11 09:07:28;;;;;;;12.95;6.03;;;;;;;-4.81;100.00;100481.90;1783459;78;21040;-63
2022/01/11 09:09:58;;;;;;;13.08;5.90;;;;;;;-4.86;100.00;100480.84;1793513;78;21118;-63
2022/01/11 09:12:25;;;;;;;7.47;4.83;;;;;;;-4.87;100.00;100480.50;1768295;79;20997;-66
2022/01/11 09:14:53;;;;;;;8.45;4.22;;;;;;;-4.89;100.00;100470.78;1799697;78;21046;-64
2022/01/11 09:17:19;;;;;;;7.80;4.12;;;;;;;-4.82;100.00;100476.72;1788410;78;21540;-65
2022/01/11 09:19:46;;;;;;;8.70;5.60;;;;;;;-4.85;100.00;100474.42;1795361;78;21149;-66
2022/01/11 09:22:16;;;;;;;9.88;5.10;;;;;;;-4.91;100.00;100478.20;1813486;78;22065;-65
2022/01/11 09:24:45;;;;;;;10.58;5.87;;;;;;;-4.86;100.00;100483.53;1789321;78;21019;-67
2022/01/11 09:27:15;;;;;;;8.03;4.70;;;;;;;-4.84;100.00;100481.45;1798441;78;21141;-66
2022/01/11 09:29:45;;;;;;;9.78;4.87;;;;;;;-4.84;100.00;100478.26;1792257;78;20975;-66
2022/01/11 09:32:14;;;;;;;9.50;4.72;;;;;;;-4.80;100.00;100476.86;1795428;78;21138;-66
2022/01/11 09:34:42;;;;;;;12.33;5.22;;;;;;;-4.76;100.00;100468.70;1787463;78;21707;-66
2022/01/11 09:37:11;;;;;;;8.75;5.05;;;;;;;-4.73;100.00;100472.03;1795892;78;21512;-65
2022/01/11 09:39:39;;;;;;;12.00;6.37;;;;;;;-4.69;100.00;100474.13;1788633;78;21039;-65
2022/01/11 09:42:10;;;;;;;11.65;6.53;;;;;;;-4.66;100.00;100467.01;1791687;78;20993;-66
2022/01/11 09:44:39;;;;;;;10.68;6.12;;;;;;;-4.60;100.00;100474.83;1743347;80;21529;-65
2022/01/11 09:47:12;;;;;;;13.03;6.83;;;;;;;-4.55;100.00;100470.20;1741328;80;21787;-65
2022/01/11 09:49:41;;;;;;;10.48;5.80;;;;;;;-4.49;100.00;100469.43;1766670;78;20985;-66
2022/01/11 09:52:11;;;;;;;15.10;7.55;;;;;;;-4.35;100.00;100468.17;1775290;78;21016;-66
2022/01/11 09:54:42;;;;;;;11.88;5.55;;;;;;;-4.27;100.00;100473.39;1794393;78;21027;-66
2022/01/11 09:57:09;;;;;;;11.73;6.00;;;;;;;-4.26;100.00;100469.66;1783443;78;21080;-65
2022/01/11 09:59:36;;;;;;;11.78;5.78;;;;;;;-4.23;100.00;100467.91;1753051;79;21230;-65
2022/01/11 10:02:21;;;;;;;13.58;7.58;;;;;;;-4.17;100.00;100471.17;1796517;78;21038;-66
2022/01/11 10:04:59;;;;;;;17.80;7.75;;;;;;;-4.12;100.00;100468.38;1794347;78;21017;-66
2022/01/11 10:07:42;;;;;;;21.52;7.72;;;;;;;-4.14;100.00;100471.28;1787493;79;21721;-65
2022/01/11 10:10:20;;;;;;;12.10;7.35;;;;;;;-4.17;100.00;100461.75;1795723;78;21051;-65
2022/01/11 10:12:54;;;;;;;15.72;7.42;;;;;;;-4.22;100.00;100464.20;1788046;78;21800;-66
2022/01/11 10:15:31;;;;;;;11.63;6.42;;;;;;;-4.18;100.00;100460.07;1797749;78;20930;-66
2022/01/11 10:18:02;;;;;;;12.03;6.37;;;;;;;-4.19;100.00;100458.42;1779516;78;21043;-65
2022/01/11 10:20:34;;;;;;;15.68;7.12;;;;;;;-4.11;100.00;100458.76;1796031;78;21146;-64
2022/01/11 10:23:05;;;;;;;11.73;5.95;;;;;;;-4.04;100.00;100458.28;1800917;78;21543;-68
2022/01/11 10:25:45;;;;;;;16.70;7.20;;;;;;;-4.02;100.00;100455.39;1787417;78;21787;-63
2022/01/11 10:28:12;;;;;;;15.98;6.92;;;;;;;-4.00;100.00;100463.27;1791275;78;21525;-65
2022/01/11 10:30:40;;;;;;;15.68;7.58;;;;;;;-3.99;100.00;100468.98;1812390;78;21150;-67
2022/01/11 10:33:08;;;;;;;11.65;6.72;;;;;;;-3.97;100.00;100461.52;1805026;78;21199;-66
2022/01/11 10:35:46;;;;;;;12.60;6.15;;;;;;;-3.87;100.00;100459.82;1796270;78;21476;-67
2022/01/11 10:38:16;;;;;;;12.90;4.90;;;;;;;-3.77;100.00;100464.29;1786859;78;21528;-66
2022/01/11 10:40:45;;;;;;;6.25;4.17;;;;;;;-3.84;100.00;100456.72;1788205;78;21497;-66
2022/01/11 10:43:16;;;;;;;9.23;4.70;;;;;;;-3.99;100.00;100456.33;1784183;78;21032;-66
2022/01/11 10:45:46;;;;;;;10.28;5.60;;;;;;;-4.03;100.00;100463.16;1765646;78;21484;-66
2022/01/11 10:48:22;;;;;;;11.90;5.25;;;;;;;-4.01;100.00;100460.27;1792865;78;21028;-66
2022/01/11 10:50:53;;;;;;;11.75;5.10;;;;;;;-4.07;100.00;100461.89;1776286;78;21645;-65
2022/01/11 10:53:24;;;;;;;14.40;7.08;;;;;;;-4.13;100.00;100472.12;1812100;78;20992;-66
2022/01/11 10:55:57;;;;;;;12.63;5.87;;;;;;;-4.30;100.00;100468.41;1788088;78;21100;-66
2022/01/11 10:58:25;;;;;;;11.53;5.78;;;;;;;-4.33;100.00;100463.42;1794986;78;21084;-67
2022/01/11 11:00:57;;;;;;;12.28;6.22;;;;;;;-4.26;100.00;100466.97;1795998;78;20983;-67
2022/01/11 11:03:27;;;;;;;13.20;6.10;;;;;;;-4.25;100.00;100469.16;1810027;78;21767;-67
2022/01/11 11:06:07;;;;;;;11.25;5.62;;;;;;;-4.27;100.00;100461.28;1804021;78;21070;-66
2022/01/11 11:08:36;;;;;;;12.03;6.25;;;;;;;-4.34;100.00;100459.89;1771245;79;26705;-66
2022/01/11 11:11:17;;;;;;;19.27;7.67;;;;;;;-4.36;100.00;100462.45;1794988;78;21005;-66
2022/01/11 11:13:46;;;;;;;10.40;6.47;;;;;;;-4.37;100.00;100462.98;1792705;78;21132;-66
2022/01/11 11:16:22;;;;;;;12.43;5.70;;;;;;;-4.37;100.00;100467.02;1805122;78;20992;-66
2022/01/11 11:18:54;;;;;;;14.20;6.80;;;;;;;-4.38;100.00;100455.92;1808051;78;21040;-67
2022/01/11 11:21:27;;;;;;;15.05;8.00;;;;;;;-4.32;100.00;100472.64;1807181;78;21580;-66
2022/01/11 11:24:02;;;;;;;18.50;8.68;;;;;;;-4.30;100.00;100467.06;1794567;78;21090;-67